Time;durP1;ratioP1;P1;durP2;ratioP2;P2;SDS_P1;SDS_P2;PMS_P1;PMS_P2;Temp;Humidity;BMP_temperature;BMP_pressure;BME280_temperature;BME280_humidity;BME280_pressure;Samples;Min_cycle;Max_cycle;Signal;HPM_P1;HPM_P2
2023/03/17 00:02:00;;;;;;;;;;;;;;;6.52;73.03;100751.50;4964158;28;5171;-77
2023/03/17 00:04:26;;;;;;;;;;;;;;;6.52;72.35;100746.34;4994412;28;1231;-77
2023/03/17 00:06:52;;;;;;;;;;;;;;;6.52;72.40;100742.97;4967716;28;1285;-77
2023/03/17 00:09:18;;;;;;;;;;;;;;;6.51;71.91;100736.16;4969272;28;955;-77
2023/03/17 00:11:44;;;;;;;;;;;;;;;6.50;72.61;100747.41;4963183;28;1144;-78
2023/03/17 00:14:09;;;;;;;;;;;;;;;6.49;72.58;100730.28;4962086;28;1080;-78
2023/03/17 00:16:40;;;;;;;;;;;;;;;6.49;72.58;100738.03;4964984;28;1101;-78
2023/03/17 00:19:05;;;;;;;;;;;;;;;6.46;71.83;100731.31;4961125;28;1682;-78
2023/03/17 00:21:31;;;;;;;;;;;;;;;6.44;72.53;100732.34;4965832;28;2005;-78
2023/03/17 00:23:58;;;;;;;;;;;;;;;6.41;71.88;100732.53;4967433;28;1329;-78
2023/03/17 00:26:23;;;;;;;;;;;;;;;6.38;72.44;100729.25;4967860;28;1393;-78
2023/03/17 00:28:49;;;;;;;;;;;;;;;6.36;72.58;100736.22;4964746;28;1354;-77
2023/03/17 00:31:20;;;;;;;;;;;;;;;6.32;72.63;100729.66;4962062;28;2338;-77
2023/03/17 00:33:46;;;;;;;;;;;;;;;6.26;72.74;100709.44;4957996;28;1389;-78
2023/03/17 00:36:17;;;;;;;;;;;;;;;6.25;72.80;100712.94;4967639;28;1691;-78
2023/03/17 00:38:42;;;;;;;;;;;;;;;6.21;72.76;100711.50;4962501;28;1190;-78
2023/03/17 00:41:11;;;;;;;;;;;;;;;6.18;72.42;100716.81;4965680;28;1969;-77
2023/03/17 00:43:37;;;;;;;;;;;;;;;6.13;72.41;100714.53;4964039;28;1269;-77
2023/03/17 00:46:08;;;;;;;;;;;;;;;6.11;72.98;100707.84;4959043;28;1487;-77
2023/03/17 00:48:33;;;;;;;;;;;;;;;6.09;73.46;100718.25;4963673;28;1262;-77
2023/03/17 00:50:59;;;;;;;;;;;;;;;6.05;73.13;100705.69;4965348;28;1489;-77
2023/03/17 00:53:24;;;;;;;;;;;;;;;6.03;73.07;100710.09;4964689;28;1616;-77
2023/03/17 00:55:49;;;;;;;;;;;;;;;6.00;73.14;100718.84;4962087;28;1256;-77
2023/03/17 00:58:23;;;;;;;;;;;;;;;6.01;73.56;100706.78;4963304;28;1430;-77
2023/03/17 01:00:48;;;;;;;;;;;;;;;6.00;72.74;100707.72;4964054;28;5214;-77
2023/03/17 01:03:14;;;;;;;;;;;;;;;5.99;73.05;100706.06;4961249;28;1531;-77
2023/03/17 01:05:40;;;;;;;;;;;;;;;5.99;73.14;100698.34;4968038;28;1251;-78
2023/03/17 01:08:05;;;;;;;;;;;;;;;5.97;72.50;100692.50;4962180;28;1265;-77
2023/03/17 01:10:31;;;;;;;;;;;;;;;5.95;73.82;100694.31;4968192;28;1086;-77
2023/03/17 01:12:57;;;;;;;;;;;;;;;5.94;73.53;100695.25;4977199;28;1262;-77
2023/03/17 01:15:24;;;;;;;;;;;;;;;5.93;73.17;100691.03;4964504;28;1004;-77
2023/03/17 01:17:50;;;;;;;;;;;;;;;5.92;73.12;100697.09;4960490;28;1441;-77
2023/03/17 01:20:20;;;;;;;;;;;;;;;5.89;73.38;100700.66;4963291;28;1964;-77
2023/03/17 01:22:45;;;;;;;;;;;;;;;5.90;73.84;100706.63;4964604;28;1358;-77
2023/03/17 01:25:11;;;;;;;;;;;;;;;5.91;73.69;100703.13;4964490;28;1337;-77
2023/03/17 01:27:36;;;;;;;;;;;;;;;5.89;73.23;100690.34;4963569;28;2578;-77
2023/03/17 01:30:03;;;;;;;;;;;;;;;5.88;72.83;100696.44;4966155;28;1484;-78
2023/03/17 01:32:28;;;;;;;;;;;;;;;5.84;73.72;100688.06;4965827;28;1377;-77
2023/03/17 01:34:54;;;;;;;;;;;;;;;5.82;73.51;100695.06;4965812;28;1383;-78
2023/03/17 01:37:20;;;;;;;;;;;;;;;5.80;73.33;100685.81;4966769;28;1473;-77
2023/03/17 01:39:45;;;;;;;;;;;;;;;5.77;74.13;100681.66;4963799;28;2005;-77
2023/03/17 01:42:10;;;;;;;;;;;;;;;5.76;73.41;100681.78;4964793;28;1270;-78
2023/03/17 01:44:55;;;;;;;;;;;;;;;5.74;73.76;100671.59;4962431;28;1293;-77
2023/03/17 01:47:22;;;;;;;;;;;;;;;5.71;73.60;100673.53;4963690;28;1460;-77
2023/03/17 01:49:48;;;;;;;;;;;;;;;5.68;73.47;100679.69;4965955;28;1283;-77
2023/03/17 01:52:15;;;;;;;;;;;;;;;5.68;73.88;100674.56;4964120;28;1174;-77
2023/03/17 01:54:49;;;;;;;;;;;;;;;5.67;73.91;100670.31;4960911;28;1342;-77
2023/03/17 01:57:22;;;;;;;;;;;;;;;5.67;73.90;100672.88;4967299;28;1518;-77
2023/03/17 01:59:49;;;;;;;;;;;;;;;5.66;73.98;100671.22;4964756;28;2314;-78
2023/03/17 02:02:18;;;;;;;;;;;;;;;5.63;74.08;100656.00;4963626;28;4675;-77
2023/03/17 02:04:44;;;;;;;;;;;;;;;5.63;74.69;100668.88;4966091;28;1276;-77
2023/03/17 02:07:10;;;;;;;;;;;;;;;5.61;74.16;100657.84;4957493;28;1550;-77
2023/03/17 02:09:35;;;;;;;;;;;;;;;5.57;73.86;100653.81;4963913;28;1350;-77
2023/03/17 02:12:02;;;;;;;;;;;;;;;5.55;74.06;100655.66;4969594;28;1473;-77
2023/03/17 02:14:28;;;;;;;;;;;;;;;5.51;74.30;100649.06;4969251;28;1424;-77
2023/03/17 02:16:53;;;;;;;;;;;;;;;5.47;73.94;100638.13;4964716;28;2429;-77
2023/03/17 02:19:18;;;;;;;;;;;;;;;5.46;74.05;100640.81;4972291;28;1229;-76
2023/03/17 02:21:46;;;;;;;;;;;;;;;5.44;74.30;100637.50;4965793;28;1968;-77
2023/03/17 02:24:16;;;;;;;;;;;;;;;5.42;74.41;100642.75;4968440;28;2070;-76
2023/03/17 02:26:42;;;;;;;;;;;;;;;5.43;74.23;100635.84;4971154;28;1090;-76
2023/03/17 02:29:07;;;;;;;;;;;;;;;5.42;74.28;100639.34;4962264;28;966;-78
2023/03/17 02:31:33;;;;;;;;;;;;;;;5.41;74.40;100650.56;4997149;28;1306;-78
2023/03/17 02:33:59;;;;;;;;;;;;;;;5.40;74.30;100644.59;4961847;28;1469;-77
2023/03/17 02:36:24;;;;;;;;;;;;;;;5.38;74.69;100637.88;4969795;28;1108;-77
2023/03/17 02:38:50;;;;;;;;;;;;;;;5.38;73.86;100637.88;4963769;28;1103;-77
2023/03/17 02:41:15;;;;;;;;;;;;;;;5.40;74.53;100633.50;4963871;28;1898;-77
2023/03/17 02:43:41;;;;;;;;;;;;;;;5.38;73.79;100638.72;4971153;28;1229;-77
2023/03/17 02:46:06;;;;;;;;;;;;;;;5.36;74.38;100625.13;4964997;28;1452;-77
2023/03/17 02:48:33;;;;;;;;;;;;;;;5.37;74.69;100620.81;4965678;28;1284;-76
2023/03/17 02:50:58;;;;;;;;;;;;;;;5.36;74.44;100624.31;4965934;28;1193;-78
2023/03/17 02:53:23;;;;;;;;;;;;;;;5.35;74.04;100623.47;4967611;28;1961;-77
2023/03/17 02:55:49;;;;;;;;;;;;;;;5.35;74.58;100632.94;4967543;28;1224;-77
2023/03/17 02:58:14;;;;;;;;;;;;;;;5.35;74.74;100630.38;4965667;28;1638;-77
2023/03/17 03:00:40;;;;;;;;;;;;;;;5.35;75.21;100622.66;4965615;28;5042;-77
2023/03/17 03:03:05;;;;;;;;;;;;;;;5.36;74.54;100624.31;4967250;28;1617;-76
2023/03/17 03:05:30;;;;;;;;;;;;;;;5.37;74.72;100615.66;4960003;28;1307;-77
2023/03/17 03:07:56;;;;;;;;;;;;;;;5.37;74.63;100615.66;4961554;28;1413;-77
2023/03/17 03:10:21;;;;;;;;;;;;;;;5.37;74.23;100618.25;4967321;28;1641;-77
2023/03/17 03:12:46;;;;;;;;;;;;;;;5.38;74.63;100618.13;4969280;28;1253;-77
2023/03/17 03:15:12;;;;;;;;;;;;;;;5.39;74.96;100622.38;4970602;28;1440;-77
2023/03/17 03:17:37;;;;;;;;;;;;;;;5.40;74.64;100620.63;4963136;28;1401;-77
2023/03/17 03:20:03;;;;;;;;;;;;;;;5.42;74.47;100623.91;4967574;28;2146;-77
2023/03/17 03:22:28;;;;;;;;;;;;;;;5.42;74.74;100634.22;4978547;28;1592;-76
2023/03/17 03:24:53;;;;;;;;;;;;;;;5.44;73.97;100632.34;4969505;28;1532;-77
2023/03/17 03:27:18;;;;;;;;;;;;;;;5.44;74.20;100627.22;4969091;28;1320;-77
2023/03/17 03:29:44;;;;;;;;;;;;;;;5.46;74.32;100635.66;4968713;28;1432;-77
2023/03/17 03:32:09;;;;;;;;;;;;;;;5.47;74.47;100629.59;4969437;28;1437;-77
2023/03/17 03:34:34;;;;;;;;;;;;;;;5.49;74.50;100635.47;4968835;28;1266;-77
2023/03/17 03:37:00;;;;;;;;;;;;;;;5.50;74.38;100637.09;4968839;28;1421;-77
2023/03/17 03:39:25;;;;;;;;;;;;;;;5.50;74.22;100642.25;4968527;28;1504;-77
2023/03/17 03:41:50;;;;;;;;;;;;;;;5.49;74.01;100640.59;4967774;28;1902;-77
2023/03/17 03:44:15;;;;;;;;;;;;;;;5.50;74.10;100644.81;4967661;28;1644;-77
2023/03/17 03:46:41;;;;;;;;;;;;;;;5.51;74.00;100638.78;4967092;28;1513;-77
2023/03/17 03:49:06;;;;;;;;;;;;;;;5.52;74.09;100640.44;4992437;28;1343;-77
2023/03/17 03:51:31;;;;;;;;;;;;;;;5.53;73.94;100632.59;4962039;28;1425;-78
2023/03/17 03:53:57;;;;;;;;;;;;;;;5.53;73.73;100631.78;4964975;28;1380;-78
2023/03/17 03:56:22;;;;;;;;;;;;;;;5.53;73.81;100636.94;4967449;28;1260;-77
2023/03/17 03:58:47;;;;;;;;;;;;;;;5.53;73.99;100647.22;4966750;28;1281;-77
2023/03/17 04:01:12;;;;;;;;;;;;;;;5.53;74.62;100649.78;4965666;28;4880;-77
2023/03/17 04:03:38;;;;;;;;;;;;;;;5.53;73.86;100649.78;4966576;28;1485;-78
2023/03/17 04:06:03;;;;;;;;;;;;;;;5.53;74.23;100647.22;4961877;28;1171;-77
2023/03/17 04:08:30;;;;;;;;;;;;;;;5.52;74.61;100661.00;4967330;28;1304;-77
2023/03/17 04:10:55;;;;;;;;;;;;;;;5.53;74.30;100665.22;4967875;28;1244;-77
2023/03/17 04:13:21;;;;;;;;;;;;;;;5.52;74.31;100666.97;4967563;28;1408;-77
2023/03/17 04:15:46;;;;;;;;;;;;;;;5.53;73.99;100667.78;4965546;28;2345;-77
2023/03/17 04:18:11;;;;;;;;;;;;;;;5.52;74.33;100666.16;4963032;28;1440;-77
2023/03/17 04:20:37;;;;;;;;;;;;;;;5.50;74.00;100658.50;4966768;28;1903;-77
2023/03/17 04:23:03;;;;;;;;;;;;;;;5.50;74.74;100658.50;4961337;28;1017;-77
2023/03/17 04:25:28;;;;;;;;;;;;;;;5.48;74.38;100659.53;4962954;28;1246;-78
2023/03/17 04:27:53;;;;;;;;;;;;;;;5.48;74.28;100642.34;4967945;28;1591;-77
2023/03/17 04:30:18;;;;;;;;;;;;;;;5.47;74.57;100642.47;4954981;28;1413;-77
2023/03/17 04:32:44;;;;;;;;;;;;;;;5.47;74.03;100650.19;4965655;28;1102;-79
2023/03/17 04:35:13;;;;;;;;;;;;;;;5.45;74.36;100654.56;4962850;28;1099;-78
2023/03/17 04:37:38;;;;;;;;;;;;;;;5.44;74.07;100660.66;4965883;28;1639;-77
2023/03/17 04:40:07;;;;;;;;;;;;;;;5.42;74.39;100650.47;4996021;28;1922;-77
2023/03/17 04:42:32;;;;;;;;;;;;;;;5.39;74.21;100649.81;4965738;28;1169;-77
2023/03/17 04:44:57;;;;;;;;;;;;;;;5.37;74.34;100651.66;4962568;28;1397;-77
2023/03/17 04:47:22;;;;;;;;;;;;;;;5.35;74.67;100654.34;4961590;28;1481;-77
2023/03/17 04:49:48;;;;;;;;;;;;;;;5.35;74.68;100648.38;4959151;28;1606;-77
2023/03/17 04:52:13;;;;;;;;;;;;;;;5.31;74.51;100658.84;4952691;28;1457;-76
2023/03/17 04:54:38;;;;;;;;;;;;;;;5.31;74.38;100653.69;4955782;28;1433;-76
2023/03/17 04:57:03;;;;;;;;;;;;;;;5.31;74.85;100653.69;4996719;28;1682;-76
2023/03/17 04:59:28;;;;;;;;;;;;;;;5.31;74.47;100658.03;4956933;28;1407;-76
2023/03/17 05:01:54;;;;;;;;;;;;;;;5.29;74.58;100660.69;4959760;28;4809;-76
2023/03/17 05:04:19;;;;;;;;;;;;;;;5.29;74.76;100660.69;4956157;28;1211;-76
2023/03/17 05:06:44;;;;;;;;;;;;;;;5.28;74.97;100671.91;4963636;28;1286;-76
2023/03/17 05:09:10;;;;;;;;;;;;;;;5.28;74.35;100671.91;4958651;28;1536;-76
2023/03/17 05:11:35;;;;;;;;;;;;;;;5.28;74.97;100658.22;4956225;28;2054;-76
2023/03/17 05:14:01;;;;;;;;;;;;;;;5.27;75.00;100652.22;4961398;28;2052;-76
2023/03/17 05:16:26;;;;;;;;;;;;;;;5.28;74.89;100659.06;4960717;28;1581;-77
2023/03/17 05:18:51;;;;;;;;;;;;;;;5.27;74.83;100649.66;4963583;28;1356;-76
2023/03/17 05:21:16;;;;;;;;;;;;;;;5.25;75.23;100648.13;4965051;28;1902;-76
2023/03/17 05:23:42;;;;;;;;;;;;;;;5.22;75.46;100646.56;4970768;28;1318;-76
2023/03/17 05:26:07;;;;;;;;;;;;;;;5.21;75.57;100647.47;4967208;28;1514;-76
2023/03/17 05:28:32;;;;;;;;;;;;;;;5.20;75.58;100647.56;4967165;28;1437;-75
2023/03/17 05:30:58;;;;;;;;;;;;;;;5.19;75.36;100644.19;4969305;28;1308;-76
2023/03/17 05:33:23;;;;;;;;;;;;;;;5.17;75.45;100646.03;4965980;28;1468;-76
2023/03/17 05:35:48;;;;;;;;;;;;;;;5.17;75.34;100646.03;4966424;28;1510;-77
2023/03/17 05:38:14;;;;;;;;;;;;;;;5.16;75.51;100649.53;4968983;28;1301;-77
2023/03/17 05:40:40;;;;;;;;;;;;;;;5.13;75.36;100649.72;4962563;28;1952;-74
2023/03/17 05:43:06;;;;;;;;;;;;;;;5.12;75.41;100652.38;4962279;28;1504;-75
2023/03/17 05:45:32;;;;;;;;;;;;;;;5.11;75.21;100646.41;4967638;28;1330;-77
2023/03/17 05:47:57;;;;;;;;;;;;;;;5.09;75.77;100635.38;4970484;28;1429;-76
2023/03/17 05:50:22;;;;;;;;;;;;;;;5.07;75.68;100644.94;4973160;28;1751;-74
2023/03/17 05:52:47;;;;;;;;;;;;;;;5.06;76.02;100643.28;4970374;28;1198;-75
2023/03/17 05:55:13;;;;;;;;;;;;;;;5.06;75.71;100648.44;4969193;28;1389;-76
2023/03/17 05:57:38;;;;;;;;;;;;;;;5.04;75.51;100640.78;4969225;28;1449;-76
2023/03/17 06:00:04;;;;;;;;;;;;;;;5.01;75.65;100645.31;4969861;28;4972;-76
2023/03/17 06:02:29;;;;;;;;;;;;;;;5.01;75.50;100641.00;4975069;28;1589;-75
2023/03/17 06:04:55;;;;;;;;;;;;;;;5.01;75.69;100641.00;4973765;28;1476;-76
2023/03/17 06:07:21;;;;;;;;;;;;;;;5.03;75.44;100638.31;4973052;28;1466;-75
2023/03/17 06:09:47;;;;;;;;;;;;;;;5.03;75.51;100639.16;4972012;28;2435;-76
2023/03/17 06:12:12;;;;;;;;;;;;;;;5.04;75.97;100634.84;4971704;28;1432;-76
2023/03/17 06:14:37;;;;;;;;;;;;;;;5.04;75.92;100629.69;4961510;28;1275;-76
2023/03/17 06:17:03;;;;;;;;;;;;;;;5.06;75.64;100627.88;4970666;28;1149;-77
2023/03/17 06:19:28;;;;;;;;;;;;;;;5.05;76.05;100632.19;4971017;28;1014;-77
2023/03/17 06:21:53;;;;;;;;;;;;;;;5.06;76.22;100633.00;4960463;28;1915;-76
2023/03/17 06:24:19;;;;;;;;;;;;;;;5.05;75.83;100633.94;4970372;28;1214;-77
2023/03/17 06:26:44;;;;;;;;;;;;;;;5.02;76.14;100636.69;4966384;28;1471;-77
2023/03/17 06:29:11;;;;;;;;;;;;;;;5.00;76.27;100639.34;4969718;28;1397;-76
2023/03/17 06:31:37;;;;;;;;;;;;;;;5.00;76.10;100644.50;4963490;28;1525;-77
2023/03/17 06:34:02;;;;;;;;;;;;;;;5.02;75.89;100639.25;4968801;28;1246;-77
2023/03/17 06:36:27;;;;;;;;;;;;;;;5.01;76.25;100647.88;4964631;28;1277;-77
2023/03/17 06:38:53;;;;;;;;;;;;;;;5.02;76.43;100647.78;4966453;28;1192;-78
2023/03/17 06:41:18;;;;;;;;;;;;;;;5.04;76.36;100650.25;4967229;28;1987;-77
2023/03/17 06:43:43;;;;;;;;;;;;;;;5.05;76.65;100646.78;4969840;28;1325;-77
2023/03/17 06:46:09;;;;;;;;;;;;;;;5.05;76.21;100642.47;4965932;28;1138;-77
2023/03/17 06:48:34;;;;;;;;;;;;;;;5.04;76.46;100634.84;4965212;28;1170;-78
2023/03/17 06:50:59;;;;;;;;;;;;;;;5.08;76.52;100651.72;4960501;28;1155;-77
2023/03/17 06:53:25;;;;;;;;;;;;;;;5.10;76.86;100647.31;4962087;28;1446;-77
2023/03/17 06:55:50;;;;;;;;;;;;;;;5.12;76.58;100648.06;4963519;28;1464;-77
2023/03/17 06:58:15;;;;;;;;;;;;;;;5.13;76.96;100649.72;4956389;28;1269;-77
2023/03/17 07:00:41;;;;;;;;;;;;;;;5.17;76.75;100656.31;4976141;28;4817;-77
2023/03/17 07:03:06;;;;;;;;;;;;;;;5.20;77.40;100653.53;4968751;28;1186;-77
2023/03/17 07:05:32;;;;;;;;;;;;;;;5.23;77.17;100658.50;4967815;28;2055;-78
2023/03/17 07:07:57;;;;;;;;;;;;;;;5.27;76.90;100662.53;4962869;28;1329;-77
2023/03/17 07:10:23;;;;;;;;;;;;;;;5.33;76.97;100663.88;4960064;28;1393;-77
2023/03/17 07:12:48;;;;;;;;;;;;;;;5.37;76.89;100651.66;4959758;28;1151;-77
2023/03/17 07:15:15;;;;;;;;;;;;;;;5.44;77.16;100647.78;4958944;28;1283;-77
2023/03/17 07:17:40;;;;;;;;;;;;;;;5.49;77.08;100653.47;4962791;28;1367;-77
2023/03/17 07:20:06;;;;;;;;;;;;;;;5.56;77.02;100649.56;4961002;28;1898;-78
2023/03/17 07:22:31;;;;;;;;;;;;;;;5.62;77.44;100645.78;4967827;28;1469;-78
2023/03/17 07:24:57;;;;;;;;;;;;;;;5.68;78.25;100650.53;4964047;28;1389;-78
2023/03/17 07:27:24;;;;;;;;;;;;;;;5.75;77.79;100644.94;4967170;28;1245;-78
2023/03/17 07:29:50;;;;;;;;;;;;;;;5.83;77.39;100647.00;4967001;28;1428;-78
2023/03/17 07:32:15;;;;;;;;;;;;;;;5.90;77.60;100650.81;4963777;28;1299;-77
2023/03/17 07:34:40;;;;;;;;;;;;;;;5.96;77.93;100645.31;4982006;28;1191;-78
2023/03/17 07:37:06;;;;;;;;;;;;;;;6.03;77.46;100650.91;4964847;28;1289;-77
2023/03/17 07:39:31;;;;;;;;;;;;;;;6.10;76.96;100647.00;4963958;28;1577;-77
2023/03/17 07:41:57;;;;;;;;;;;;;;;6.17;77.44;100645.66;4964010;28;1964;-78
2023/03/17 07:44:22;;;;;;;;;;;;;;;6.23;76.79;100645.25;4959748;28;1299;-78
2023/03/17 07:46:48;;;;;;;;;;;;;;;6.30;76.50;100648.22;4959628;28;1313;-78
2023/03/17 07:49:14;;;;;;;;;;;;;;;6.37;76.87;100644.34;4956340;28;1276;-78
2023/03/17 07:51:41;;;;;;;;;;;;;;;6.44;77.08;100634.44;4960248;28;1414;-78
2023/03/17 07:54:07;;;;;;;;;;;;;;;6.51;77.58;100615.06;4963161;28;1523;-78
2023/03/17 07:58:58;;;;;;;;;;;;;;;6.63;77.53;100624.53;4982132;23;1450;-78
2023/03/17 08:01:24;;;;;;;;;;;;;;;6.70;77.18;100620.59;4962922;28;4698;-78
2023/03/17 08:03:49;;;;;;;;;;;;;;;6.78;77.22;100623.50;4967432;28;1606;-77
2023/03/17 08:06:14;;;;;;;;;;;;;;;6.83;76.61;100629.16;4965702;28;1444;-77
2023/03/17 08:08:40;;;;;;;;;;;;;;;6.90;76.39;100638.09;4963272;28;1310;-78
2023/03/17 08:11:06;;;;;;;;;;;;;;;7.01;76.83;100628.81;4951474;28;1223;-77
2023/03/17 08:13:31;;;;;;;;;;;;;;;7.13;75.96;100643.44;4965069;28;1351;-77
2023/03/17 08:15:57;;;;;;;;;;;;;;;7.24;75.20;100645.25;4968691;28;1335;-78
2023/03/17 08:18:22;;;;;;;;;;;;;;;7.33;75.82;100650.56;4966660;28;1150;-78
2023/03/17 08:20:48;;;;;;;;;;;;;;;7.48;74.53;100647.84;4958030;28;1950;-78
2023/03/17 08:23:13;;;;;;;;;;;;;;;7.61;74.72;100640.88;4967971;28;1386;-78
2023/03/17 08:25:38;;;;;;;;;;;;;;;7.73;73.63;100632.22;4967298;28;1349;-78
2023/03/17 08:28:03;;;;;;;;;;;;;;;7.83;73.50;100628.03;4967723;28;1077;-78
2023/03/17 08:30:29;;;;;;;;;;;;;;;7.91;72.54;100630.91;4965669;28;1043;-78
2023/03/17 08:32:54;;;;;;;;;;;;;;;8.01;72.47;100625.03;4961587;28;1233;-78
2023/03/17 08:35:19;;;;;;;;;;;;;;;8.10;72.47;100629.53;4963037;28;1152;-78
2023/03/17 08:37:46;;;;;;;;;;;;;;;8.18;72.00;100637.53;4966903;28;1413;-78
2023/03/17 08:40:12;;;;;;;;;;;;;;;8.25;72.18;100636.13;4951546;28;1899;-78
2023/03/17 08:42:37;;;;;;;;;;;;;;;8.33;71.33;100633.81;4959725;28;1423;-78
2023/03/17 08:45:05;;;;;;;;;;;;;;;8.38;71.61;100634.31;4960306;28;1670;-79
2023/03/17 08:47:30;;;;;;;;;;;;;;;8.47;71.13;100638.78;4967087;28;1449;-79
2023/03/17 08:49:59;;;;;;;;;;;;;;;8.56;71.46;100637.28;4963785;28;1234;-79
2023/03/17 08:52:24;;;;;;;;;;;;;;;8.61;70.42;100629.16;4966699;28;1449;-78
2023/03/17 08:54:50;;;;;;;;;;;;;;;8.66;70.31;100616.69;4966574;28;1158;-78
2023/03/17 08:57:16;;;;;;;;;;;;;;;8.71;70.78;100619.75;4967566;28;2074;-78
2023/03/17 08:59:41;;;;;;;;;;;;;;;8.76;70.45;100613.28;4966072;28;1484;-78
2023/03/17 09:02:09;;;;;;;;;;;;;;;8.83;69.95;100618.81;4960270;28;4638;-78
2023/03/17 09:04:35;;;;;;;;;;;;;;;8.89;69.66;100623.53;4964154;28;1187;-78
2023/03/17 09:07:00;;;;;;;;;;;;;;;8.96;69.86;100623.84;4956563;28;1441;-78
2023/03/17 09:09:26;;;;;;;;;;;;;;;9.01;68.76;100619.97;4958067;28;1409;-78
2023/03/17 09:11:51;;;;;;;;;;;;;;;9.06;69.28;100614.44;4958053;28;1204;-78
2023/03/17 09:14:17;;;;;;;;;;;;;;;9.13;68.85;100619.94;4957163;28;1236;-78
2023/03/17 09:16:42;;;;;;;;;;;;;;;9.18;68.63;100618.66;4956153;28;1701;-78
2023/03/17 09:19:07;;;;;;;;;;;;;;;9.26;68.88;100631.78;4952941;28;1283;-78
2023/03/17 09:21:32;;;;;;;;;;;;;;;9.31;68.86;100623.66;4981590;28;1977;-78
2023/03/17 09:23:58;;;;;;;;;;;;;;;9.36;68.49;100626.72;4972847;28;1455;-78
2023/03/17 09:26:24;;;;;;;;;;;;;;;9.42;68.69;100631.41;4965519;28;1513;-78
2023/03/17 09:28:50;;;;;;;;;;;;;;;9.48;68.59;100620.56;4964397;28;1288;-78
2023/03/17 09:31:15;;;;;;;;;;;;;;;9.55;68.92;100632.06;4952997;28;1164;-78
2023/03/17 09:33:41;;;;;;;;;;;;;;;9.61;69.07;100629.91;4966838;28;1283;-78
2023/03/17 09:36:07;;;;;;;;;;;;;;;9.69;69.06;100622.34;4968913;28;1362;-79
2023/03/17 09:38:32;;;;;;;;;;;;;;;9.81;68.61;100629.13;4950753;28;1475;-78
2023/03/17 09:41:27;;;;;;;;;;;;;;;9.88;68.52;100622.50;4961620;28;1963;-78
2023/03/17 09:44:05;;;;;;;;;;;;;;;10.00;68.27;100636.22;4957917;28;1317;-78
2023/03/17 09:46:40;;;;;;;;;;;;;;;10.09;68.18;100645.81;4981448;28;1552;-78
2023/03/17 09:49:12;;;;;;;;;;;;;;;10.22;68.31;100653.41;4965158;28;1561;-78
2023/03/17 09:51:38;;;;;;;;;;;;;;;10.34;67.87;100655.03;4960582;28;1353;-78
2023/03/17 09:54:05;;;;;;;;;;;;;;;10.47;68.14;100668.59;4964431;28;2030;-78
2023/03/17 09:56:32;;;;;;;;;;;;;;;10.59;67.24;100666.75;4971334;28;1206;-78
2023/03/17 09:59:02;;;;;;;;;;;;;;;10.69;67.23;100665.03;4971166;28;1587;-78
2023/03/17 10:01:27;;;;;;;;;;;;;;;10.79;67.04;100659.88;4965494;28;4798;-79
2023/03/17 10:03:53;;;;;;;;;;;;;;;10.89;66.59;100655.53;4961127;28;1355;-79
2023/03/17 10:06:21;;;;;;;;;;;;;;;10.99;65.63;100640.81;4950533;28;1519;-79
2023/03/17 10:09:04;;;;;;;;;;;;;;;11.07;63.95;100651.38;4960524;28;1507;-79
2023/03/17 10:11:37;;;;;;;;;;;;;;;11.15;63.92;100659.31;4956918;28;1483;-78
2023/03/17 10:14:08;;;;;;;;;;;;;;;11.23;65.65;100653.44;4959481;28;1282;-78
2023/03/17 10:16:38;;;;;;;;;;;;;;;11.32;65.75;100646.66;4961749;28;1627;-78
2023/03/17 10:19:09;;;;;;;;;;;;;;;11.40;64.84;100654.56;4958510;28;1540;-79
2023/03/17 10:21:36;;;;;;;;;;;;;;;11.47;65.25;100666.09;4964836;28;1894;-78
2023/03/17 10:24:02;;;;;;;;;;;;;;;11.54;64.69;100677.56;4970637;28;1129;-78
2023/03/17 10:26:30;;;;;;;;;;;;;;;11.60;63.86;100679.63;4949598;28;1466;-78
2023/03/17 10:28:56;;;;;;;;;;;;;;;11.63;64.95;100687.13;4962219;28;888;-78
2023/03/17 10:31:34;;;;;;;;;;;;;;;11.64;63.39;100694.00;4962667;28;1023;-78
2023/03/17 10:34:16;;;;;;;;;;;;;;;11.72;64.26;100689.88;4957607;28;1402;-78
2023/03/17 10:36:43;;;;;;;;;;;;;;;11.82;64.68;100685.56;4968017;28;1192;-78
2023/03/17 10:39:11;;;;;;;;;;;;;;;11.91;64.11;100689.91;4953345;28;1497;-78
2023/03/17 10:41:38;;;;;;;;;;;;;;;11.95;64.32;100686.09;4963904;28;1903;-78
2023/03/17 10:44:08;;;;;;;;;;;;;;;12.04;64.03;100690.44;4967812;28;1349;-79
2023/03/17 10:46:33;;;;;;;;;;;;;;;12.07;63.53;100674.59;4967885;28;1178;-78
2023/03/17 10:49:05;;;;;;;;;;;;;;;12.13;63.74;100678.41;4947056;28;1342;-79
2023/03/17 10:51:31;;;;;;;;;;;;;;;12.21;62.94;100681.97;4966357;28;1557;-78
2023/03/17 10:54:01;;;;;;;;;;;;;;;12.25;62.28;100677.31;4969545;28;1480;-78
2023/03/17 10:56:29;;;;;;;;;;;;;;;12.28;62.55;100684.03;4965531;28;1253;-79
2023/03/17 10:58:55;;;;;;;;;;;;;;;12.35;62.80;100698.09;4952501;28;1474;-78
2023/03/17 11:01:28;;;;;;;;;;;;;;;12.37;63.23;100696.16;4966657;28;4614;-78
2023/03/17 11:04:02;;;;;;;;;;;;;;;12.43;63.46;100685.19;4966958;28;1408;-79
2023/03/17 11:06:35;;;;;;;;;;;;;;;12.49;63.22;100700.25;4968850;28;1191;-77
2023/03/17 11:09:05;;;;;;;;;;;;;;;12.55;63.50;100699.69;4970054;28;1234;-77
2023/03/17 11:11:33;;;;;;;;;;;;;;;12.63;62.64;100676.41;4966040;28;1335;-77
2023/03/17 11:14:02;;;;;;;;;;;;;;;12.64;62.71;100672.81;4968345;28;1331;-77
2023/03/17 11:16:27;;;;;;;;;;;;;;;12.62;62.52;100664.34;4968669;28;1587;-77
2023/03/17 11:18:55;;;;;;;;;;;;;;;12.64;62.87;100670.22;4947161;28;1513;-77
2023/03/17 11:21:59;;;;;;;;;;;;;;;12.68;62.80;100674.19;4967046;28;1985;-77
2023/03/17 11:24:32;;;;;;;;;;;;;;;12.73;62.55;100671.97;4932234;29;1481;-77
2023/03/17 11:26:58;;;;;;;;;;;;;;;12.75;63.30;100670.06;4927575;29;1245;-77
2023/03/17 11:29:27;;;;;;;;;;;;;;;12.90;62.51;100674.78;4951038;28;1243;-77
2023/03/17 11:31:56;;;;;;;;;;;;;;;12.98;62.66;100674.88;4965842;28;1503;-77
2023/03/17 11:34:24;;;;;;;;;;;;;;;13.10;63.02;100663.31;4949337;28;1204;-77
2023/03/17 11:36:58;;;;;;;;;;;;;;;13.25;62.06;100646.28;4951855;28;1410;-77
2023/03/17 11:39:25;;;;;;;;;;;;;;;13.33;61.80;100645.53;4965104;28;1196;-78
2023/03/17 11:41:56;;;;;;;;;;;;;;;13.42;61.32;100646.41;4960964;28;1883;-77
2023/03/17 11:44:27;;;;;;;;;;;;;;;13.45;61.81;100630.50;4963071;28;1284;-77
2023/03/17 11:46:52;;;;;;;;;;;;;;;13.54;61.68;100640.03;4960238;28;2115;-77
2023/03/17 11:49:19;;;;;;;;;;;;;;;13.65;61.53;100637.22;4962867;28;1444;-77
2023/03/17 11:51:59;;;;;;;;;;;;;;;13.73;61.36;100628.63;4962055;28;1358;-77
2023/03/17 11:54:43;;;;;;;;;;;;;;;13.74;60.77;100638.91;4961498;28;1299;-77
2023/03/17 11:57:15;;;;;;;;;;;;;;;13.80;60.86;100633.09;4963878;28;1316;-77
2023/03/17 11:59:45;;;;;;;;;;;;;;;13.89;60.98;100638.38;4950522;28;1430;-77
2023/03/17 12:02:19;;;;;;;;;;;;;;;13.99;60.79;100631.25;4960107;28;4908;-76
2023/03/17 12:04:57;;;;;;;;;;;;;;;14.08;60.66;100622.53;4963982;28;1346;-77
2023/03/17 12:07:30;;;;;;;;;;;;;;;14.16;60.73;100616.53;4956309;28;1198;-77
2023/03/17 12:10:14;;;;;;;;;;;;;;;14.23;60.87;100615.78;4955552;28;1355;-77
2023/03/17 12:12:43;;;;;;;;;;;;;;;14.32;60.86;100622.69;4966355;28;1314;-78
2023/03/17 12:15:13;;;;;;;;;;;;;;;14.38;60.34;100617.81;4964349;28;1532;-77
2023/03/17 12:17:46;;;;;;;;;;;;;;;14.39;59.95;100624.66;4957138;28;1295;-77
2023/03/17 12:20:13;;;;;;;;;;;;;;;14.47;60.19;100611.72;4956122;28;1949;-76
2023/03/17 12:22:41;;;;;;;;;;;;;;;14.55;60.08;100611.75;4951944;28;1238;-77
2023/03/17 12:25:15;;;;;;;;;;;;;;;14.58;59.03;100614.06;4961516;28;1171;-76
2023/03/17 12:27:55;;;;;;;;;;;;;;;14.61;59.62;100614.53;4962661;28;1190;-76
2023/03/17 12:30:27;;;;;;;;;;;;;;;14.72;59.40;100616.06;4959877;28;1298;-77
2023/03/17 12:33:26;;;;;;;;;;;;;;;14.80;59.34;100608.28;4958236;28;1212;-76
2023/03/17 12:35:51;;;;;;;;;;;;;;;14.84;59.24;100604.34;4933643;28;1097;-77
2023/03/17 12:38:20;;;;;;;;;;;;;;;14.83;58.98;100602.72;4967940;28;1157;-76
2023/03/17 12:41:04;;;;;;;;;;;;;;;14.81;59.08;100594.25;4960230;28;1960;-77
2023/03/17 12:43:32;;;;;;;;;;;;;;;14.85;59.04;100606.00;4947536;28;2028;-77
2023/03/17 12:46:17;;;;;;;;;;;;;;;14.91;58.63;100606.31;4964138;28;1241;-76
2023/03/17 12:49:01;;;;;;;;;;;;;;;15.04;58.01;100619.78;4961844;28;1437;-76
2023/03/17 12:51:38;;;;;;;;;;;;;;;15.13;57.37;100608.34;4978735;28;1305;-77
2023/03/17 12:54:04;;;;;;;;;;;;;;;15.16;58.18;100597.59;4964874;28;1434;-76
2023/03/17 12:56:30;;;;;;;;;;;;;;;15.26;58.05;100594.84;4964687;28;1335;-77
2023/03/17 12:59:03;;;;;;;;;;;;;;;15.32;58.47;100588.97;4967625;28;1381;-76